createdAt,value
2023-02-21T00:00:19.948Z,82.96
2023-02-21T00:01:19.926Z,80.73
2023-02-21T00:02:19.928Z,80.65
2023-02-21T00:03:19.908Z,81.20
2023-02-21T00:04:19.925Z,81.67
2023-02-21T00:05:19.933Z,82.15
2023-02-21T00:06:19.909Z,82.64
2023-02-21T00:07:19.843Z,82.64
2023-02-21T00:08:19.847Z,82.15
2023-02-21T00:09:19.848Z,82.39
2023-02-21T00:10:20.519Z,82.39
2023-02-21T00:11:19.847Z,82.64
2023-02-21T00:12:19.832Z,81.99
2023-02-21T00:13:19.776Z,82.15
2023-02-21T00:14:19.771Z,81.60
2023-02-21T00:15:19.761Z,80.27
2023-02-21T00:16:19.815Z,80.27
2023-02-21T00:17:19.760Z,79.66
2023-02-21T00:18:19.714Z,78.11
2023-02-21T00:19:19.729Z,74.90
2023-02-21T00:20:19.980Z,72.89
2023-02-21T00:21:19.672Z,72.77
2023-02-21T00:22:19.779Z,72.51
2023-02-21T00:23:19.680Z,72.77
2023-02-21T00:24:19.647Z,72.39
2023-02-21T00:25:19.630Z,72.39
2023-02-21T00:26:19.628Z,72.08
2023-02-21T00:27:19.610Z,72.64
2023-02-21T00:28:19.575Z,72.45
2023-02-21T00:29:19.591Z,71.29
2023-02-21T00:30:19.568Z,70.80
2023-02-21T00:31:19.653Z,71.16
2023-02-21T00:32:19.590Z,71.53
2023-02-21T00:33:19.615Z,72.14
2023-02-21T00:34:19.719Z,72.26
2023-02-21T00:35:19.550Z,72.26
2023-02-21T00:36:19.608Z,72.33
2023-02-21T00:37:19.471Z,72.77
2023-02-21T00:38:19.444Z,73.27
2023-02-21T00:39:19.438Z,73.46
2023-02-21T00:40:20.111Z,72.70
2023-02-21T00:41:20.334Z,73.21
2023-02-21T00:42:19.418Z,73.27
2023-02-21T00:43:19.388Z,73.27
2023-02-21T00:44:19.374Z,73.85
2023-02-21T00:45:19.446Z,74.57
2023-02-21T00:46:19.435Z,74.31
2023-02-21T00:47:19.377Z,73.92
2023-02-21T00:48:19.475Z,73.46
2023-02-21T00:49:19.318Z,73.15
2023-02-21T00:50:19.306Z,72.26
2023-02-21T00:51:19.650Z,72.14
2023-02-21T00:52:19.287Z,71.71
2023-02-21T00:53:19.304Z,72.02
2023-02-21T00:54:19.248Z,71.83
2023-02-21T00:55:19.237Z,72.58
2023-02-21T00:56:19.237Z,73.02
2023-02-21T00:57:19.441Z,72.83
2023-02-21T00:58:19.199Z,72.83
2023-02-21T00:59:19.223Z,72.33
2023-02-21T01:00:19.180Z,72.45
2023-02-21T01:01:19.174Z,72.83
2023-02-21T01:02:19.171Z,72.58
2023-02-21T01:03:19.136Z,73.53
2023-02-21T01:04:19.187Z,74.64
2023-02-21T01:05:19.166Z,74.90
2023-02-21T01:06:19.108Z,75.11
2023-02-21T01:07:19.106Z,76.26
2023-02-21T01:08:19.079Z,77.10
2023-02-21T01:09:19.110Z,77.32
2023-02-21T01:10:19.044Z,77.82
2023-02-21T01:11:19.079Z,78.04
2023-02-21T01:12:19.041Z,78.04
2023-02-21T01:13:19.044Z,77.89
2023-02-21T01:14:18.997Z,76.89
2023-02-21T01:15:18.981Z,76.40
2023-02-21T01:16:18.974Z,75.65
2023-02-21T01:17:18.993Z,75.51
2023-02-21T01:18:18.949Z,74.97
2023-02-21T01:19:18.937Z,75.24
2023-02-21T01:20:18.927Z,75.04
2023-02-21T01:21:18.924Z,74.31
2023-02-21T01:22:18.966Z,73.59
2023-02-21T01:23:18.930Z,73.79
2023-02-21T01:24:18.872Z,73.08
2023-02-21T01:25:18.916Z,73.27
2023-02-21T01:26:18.859Z,73.21
2023-02-21T01:27:18.828Z,73.98
2023-02-21T01:28:18.831Z,74.44
2023-02-21T01:29:18.855Z,75.24
2023-02-21T01:30:18.844Z,75.78
2023-02-21T01:31:18.814Z,76.06
2023-02-21T01:32:18.815Z,75.99
2023-02-21T01:33:18.761Z,76.20
2023-02-21T01:34:18.757Z,76.20
2023-02-21T01:35:18.771Z,76.40
2023-02-21T01:36:18.711Z,77.18
2023-02-21T01:37:18.704Z,77.03
2023-02-21T01:38:18.701Z,77.10
2023-02-21T01:39:18.679Z,76.89
2023-02-21T01:40:18.684Z,77.25
2023-02-21T01:41:18.837Z,77.25
2023-02-21T01:42:18.676Z,76.75
2023-02-21T01:43:18.712Z,77.10
2023-02-21T01:44:18.624Z,76.54
2023-02-21T01:45:18.613Z,76.96
2023-02-21T01:46:18.686Z,77.10
2023-02-21T01:47:18.616Z,77.25
2023-02-21T01:48:18.575Z,77.60
2023-02-21T01:49:18.557Z,78.18
2023-02-21T01:50:18.553Z,78.18
2023-02-21T01:51:18.543Z,78.25
2023-02-21T01:52:18.695Z,78.25
2023-02-21T01:53:18.562Z,77.53
2023-02-21T01:54:18.644Z,77.89
2023-02-21T01:55:18.472Z,78.69
2023-02-21T01:56:18.461Z,77.96
2023-02-21T01:57:18.448Z,78.25
2023-02-21T01:58:18.474Z,77.39
2023-02-21T01:59:18.491Z,77.96
2023-02-21T02:00:18.432Z,77.89
2023-02-21T02:01:18.442Z,78.54
2023-02-21T02:02:25.270Z,78.54
2023-02-21T02:03:18.389Z,78.04
2023-02-21T02:04:18.374Z,78.32
2023-02-21T02:05:18.383Z,78.40
2023-02-21T02:06:18.341Z,78.77
2023-02-21T02:07:18.382Z,79.14
2023-02-21T02:08:18.336Z,79.36
2023-02-21T02:09:18.296Z,79.81
2023-02-21T02:10:18.303Z,79.21
2023-02-21T02:11:18.315Z,79.96
2023-02-21T02:12:18.294Z,79.59
2023-02-21T02:13:18.308Z,78.99
2023-02-21T02:14:18.239Z,79.81
2023-02-21T02:15:18.242Z,79.66
2023-02-21T02:16:18.217Z,80.04
2023-02-21T02:17:18.237Z,79.59
2023-02-21T02:18:18.233Z,79.96
2023-02-21T02:19:18.245Z,79.89
2023-02-21T02:20:18.185Z,80.42
2023-02-21T02:21:18.154Z,80.81
2023-02-21T02:22:18.141Z,80.58
2023-02-21T02:23:18.180Z,80.89
2023-02-21T02:24:18.125Z,80.35
2023-02-21T02:25:18.126Z,80.12
2023-02-21T02:26:18.106Z,79.89
2023-02-21T02:27:18.082Z,79.89
2023-02-21T02:28:18.090Z,79.51
2023-02-21T02:29:18.094Z,79.66
2023-02-21T02:30:18.063Z,79.29
2023-02-21T02:31:18.546Z,79.51
2023-02-21T02:32:18.047Z,79.21
2023-02-21T02:33:18.023Z,79.29
2023-02-21T02:34:17.989Z,79.36
2023-02-21T02:35:17.994Z,79.14
2023-02-21T02:36:17.964Z,79.21
2023-02-21T02:37:17.975Z,79.59
2023-02-21T02:38:17.954Z,79.14
2023-02-21T02:39:17.927Z,79.21
2023-02-21T02:40:17.924Z,79.21
2023-02-21T02:41:17.932Z,78.84
2023-02-21T02:42:17.884Z,78.99
2023-02-21T02:43:17.870Z,79.29
2023-02-21T02:44:17.871Z,78.77
2023-02-21T02:45:17.879Z,78.54
2023-02-21T02:46:17.915Z,79.06
2023-02-21T02:47:17.818Z,78.32
2023-02-21T02:48:17.847Z,78.99
2023-02-21T02:49:17.793Z,78.77
2023-02-21T02:50:17.814Z,79.66
2023-02-21T02:51:17.930Z,79.89
2023-02-21T02:52:17.805Z,80.19
2023-02-21T02:53:17.745Z,80.42
2023-02-21T02:54:17.748Z,81.28
2023-02-21T02:55:17.754Z,81.60
2023-02-21T02:56:17.724Z,82.15
2023-02-21T02:57:17.694Z,82.07
2023-02-21T02:58:17.689Z,82.07
2023-02-21T02:59:17.680Z,81.91
2023-02-21T03:00:17.655Z,81.91
2023-02-21T03:01:17.707Z,81.83
2023-02-21T03:02:17.633Z,82.15
2023-02-21T03:03:17.638Z,81.99
2023-02-21T03:04:17.657Z,81.99
2023-02-21T03:05:17.598Z,81.99
2023-02-21T03:06:17.578Z,82.15
2023-02-21T03:07:17.581Z,82.47
2023-02-21T03:08:17.559Z,82.64
2023-02-21T03:09:17.539Z,82.15
2023-02-21T03:10:17.556Z,82.47
2023-02-21T03:11:17.524Z,82.96
2023-02-21T03:12:17.544Z,82.56
2023-02-21T03:13:17.497Z,82.64
2023-02-21T03:14:17.546Z,83.21
2023-02-21T03:15:17.469Z,83.71
2023-02-21T03:16:17.492Z,83.54
2023-02-21T03:17:17.771Z,83.29
2023-02-21T03:18:17.440Z,84.29
2023-02-21T03:19:17.440Z,83.62
2023-02-21T03:20:18.000Z,83.87
2023-02-21T03:21:17.428Z,83.96
2023-02-21T03:22:17.407Z,83.71
2023-02-21T03:23:17.379Z,84.13
2023-02-21T03:24:17.345Z,84.55
2023-02-21T03:25:17.355Z,84.13
2023-02-21T03:26:17.363Z,84.29
2023-02-21T03:27:17.314Z,84.89
2023-02-21T03:28:17.404Z,84.98
2023-02-21T03:29:17.299Z,84.98
2023-02-21T03:30:17.324Z,85.32
2023-02-21T03:31:17.701Z,85.50
2023-02-21T03:32:17.394Z,85.84
2023-02-21T03:33:17.293Z,85.76
2023-02-21T03:34:17.283Z,85.67
2023-02-21T03:35:17.230Z,85.67
2023-02-21T03:36:17.193Z,85.67
2023-02-21T03:37:17.191Z,85.50
2023-02-21T03:38:17.462Z,85.15
2023-02-21T03:39:17.175Z,85.41
2023-02-21T03:40:17.193Z,86.20
2023-02-21T03:41:17.391Z,86.55
2023-02-21T03:42:17.148Z,86.64
2023-02-21T03:43:17.127Z,86.73
2023-02-21T03:44:17.125Z,87.09
2023-02-21T03:45:17.105Z,88.00
2023-02-21T03:46:17.126Z,88.19
2023-02-21T03:47:17.096Z,88.37
2023-02-21T03:48:26.187Z,88.00
2023-02-21T03:49:17.081Z,87.72
2023-02-21T03:50:17.033Z,87.54
2023-02-21T03:51:17.258Z,87.72
2023-02-21T03:52:17.030Z,88.37
2023-02-21T03:53:17.927Z,87.91
2023-02-21T03:54:16.981Z,87.18
2023-02-21T03:55:17.019Z,88.09
2023-02-21T03:56:16.951Z,86.91
2023-02-21T03:57:17.004Z,87.27
2023-02-21T03:58:16.960Z,86.91
2023-02-21T03:59:16.981Z,86.91
2023-02-21T04:00:16.915Z,87.09
2023-02-21T04:01:17.304Z,87.27
2023-02-21T04:02:16.957Z,87.45
2023-02-21T04:03:16.894Z,87.00
2023-02-21T04:04:16.865Z,87.27
2023-02-21T04:05:16.852Z,86.73
2023-02-21T04:06:16.876Z,86.82
2023-02-21T04:07:16.856Z,88.09
2023-02-21T04:08:16.817Z,88.56
2023-02-21T04:09:16.791Z,90.66
2023-02-21T04:10:16.813Z,92.45
2023-02-21T04:11:16.906Z,94.43
2023-02-21T04:12:16.742Z,94.75
2023-02-21T04:13:16.752Z,95.50
2023-02-21T04:14:16.743Z,93.87
2023-02-21T04:15:16.717Z,93.82
2023-02-21T04:16:16.784Z,93.79
2023-02-21T04:17:16.713Z,92.66
2023-02-21T04:18:16.699Z,91.45
2023-02-21T04:19:16.663Z,90.17
2023-02-21T04:20:16.681Z,89.69
2023-02-21T04:21:16.776Z,89.88
2023-02-21T04:22:16.653Z,89.79
2023-02-21T04:23:16.628Z,90.56
2023-02-21T04:24:16.619Z,90.85
2023-02-21T04:25:16.621Z,90.46
2023-02-21T04:26:16.614Z,90.76
2023-02-21T04:27:16.565Z,92.05
2023-02-21T04:28:16.573Z,92.35
2023-02-21T04:29:16.555Z,94.00
2023-02-21T04:30:16.571Z,94.11
2023-02-21T04:31:16.951Z,94.32
2023-02-21T04:32:16.640Z,93.90
2023-02-21T04:33:16.516Z,93.90
2023-02-21T04:34:16.490Z,91.95
2023-02-21T04:35:16.469Z,91.15
2023-02-21T04:36:16.433Z,90.66
2023-02-21T04:37:16.484Z,90.95
2023-02-21T04:38:16.451Z,90.76
2023-02-21T04:39:16.442Z,91.15
2023-02-21T04:40:16.447Z,90.66
2023-02-21T04:41:16.730Z,89.98
2023-02-21T04:42:16.412Z,89.03
2023-02-21T04:43:16.397Z,89.31
2023-02-21T04:44:16.374Z,88.00
2023-02-21T04:45:16.361Z,88.56
2023-02-21T04:46:16.372Z,88.09
2023-02-21T04:47:16.334Z,88.00
2023-02-21T04:48:16.303Z,87.63
2023-02-21T04:49:16.328Z,87.72
2023-02-21T04:50:16.357Z,86.73
2023-02-21T04:51:16.579Z,86.55
2023-02-21T04:52:16.286Z,86.64
2023-02-21T04:53:16.267Z,86.64
2023-02-21T04:54:16.273Z,86.91
2023-02-21T04:55:16.225Z,86.91
2023-02-21T04:56:16.283Z,86.82
2023-02-21T04:57:16.192Z,86.29
2023-02-21T04:58:16.217Z,86.91
2023-02-21T04:59:16.176Z,86.55
2023-02-21T05:00:16.168Z,86.64
2023-02-21T05:01:16.599Z,87.45
2023-02-21T05:02:16.158Z,87.63
2023-02-21T05:03:16.120Z,87.27
2023-02-21T05:04:16.150Z,87.27
2023-02-21T05:05:16.128Z,87.18
2023-02-21T05:06:16.073Z,87.63
2023-02-21T05:07:16.095Z,88.65
2023-02-21T05:08:16.079Z,88.74
2023-02-21T05:09:16.052Z,88.37
2023-02-21T05:10:16.037Z,88.46
2023-02-21T05:11:16.403Z,88.56
2023-02-21T05:12:16.009Z,88.93
2023-02-21T05:13:16.004Z,88.28
2023-02-21T05:14:15.977Z,88.56
2023-02-21T05:15:15.955Z,88.09
2023-02-21T05:16:16.042Z,88.09
2023-02-21T05:17:15.940Z,88.09
2023-02-21T05:18:15.953Z,87.91
2023-02-21T05:19:16.194Z,88.46
2023-02-21T05:20:15.921Z,88.00
2023-02-21T05:21:16.097Z,88.74
2023-02-21T05:22:15.883Z,88.37
2023-02-21T05:23:15.885Z,88.56
2023-02-21T05:24:15.869Z,88.65
2023-02-21T05:25:17.398Z,88.65
2023-02-21T05:26:16.122Z,88.74
2023-02-21T05:27:15.919Z,88.65
2023-02-21T05:28:15.960Z,89.31
2023-02-21T05:29:15.809Z,89.50
2023-02-21T05:30:15.804Z,89.50
2023-02-21T05:31:16.210Z,89.79
2023-02-21T05:32:15.803Z,90.07
2023-02-21T05:33:15.736Z,89.40
2023-02-21T05:34:15.734Z,89.60
2023-02-21T05:35:15.759Z,90.27
2023-02-21T05:36:15.693Z,90.46
2023-02-21T05:37:15.707Z,90.27
2023-02-21T05:38:15.710Z,90.76
2023-02-21T05:39:15.738Z,90.76
2023-02-21T05:40:15.672Z,90.66
2023-02-21T05:41:16.138Z,90.76
2023-02-21T05:42:15.621Z,91.45
2023-02-21T05:43:15.613Z,91.85
2023-02-21T05:44:15.609Z,92.35
2023-02-21T05:45:15.628Z,92.25
2023-02-21T05:46:15.656Z,92.56
2023-02-21T05:47:15.580Z,93.27
2023-02-21T05:48:15.581Z,93.38
2023-02-21T05:49:15.583Z,93.38
2023-02-21T05:50:15.529Z,93.69
2023-02-21T05:51:15.978Z,94.32
2023-02-21T05:52:15.565Z,94.64
2023-02-21T05:53:15.486Z,94.96
2023-02-21T05:54:15.485Z,95.18
2023-02-21T05:55:15.482Z,94.19
2023-02-21T05:56:15.457Z,94.24
2023-02-21T05:57:15.422Z,95.53
2023-02-21T05:58:15.428Z,95.42
2023-02-21T05:59:15.428Z,95.42
2023-02-21T06:00:15.400Z,95.91
2023-02-21T06:01:15.778Z,95.74
2023-02-21T06:02:15.463Z,95.25
2023-02-21T06:03:15.395Z,95.69
2023-02-21T06:04:15.364Z,95.63
2023-02-21T06:05:15.358Z,95.58
2023-02-21T06:06:15.315Z,95.09
2023-02-21T06:07:15.296Z,95.09
2023-02-21T06:08:15.300Z,94.35
2023-02-21T06:09:15.295Z,94.77
2023-02-21T06:10:15.284Z,94.88
2023-02-21T06:11:15.575Z,94.66
2023-02-21T06:12:15.302Z,95.09
2023-02-21T06:13:16.158Z,94.72
2023-02-21T06:14:15.260Z,95.20
2023-02-21T06:15:15.232Z,94.45
2023-02-21T06:16:15.224Z,95.39
2023-02-21T06:17:15.179Z,95.39
2023-02-21T06:18:15.173Z,94.85
2023-02-21T06:19:15.144Z,94.85
2023-02-21T06:20:15.212Z,95.39
2023-02-21T06:21:15.408Z,94.75
2023-02-21T06:22:15.115Z,94.75
2023-02-21T06:23:15.097Z,94.53
2023-02-21T06:24:15.098Z,94.00
2023-02-21T06:25:15.079Z,93.90
2023-02-21T06:26:15.096Z,93.07
2023-02-21T06:27:15.047Z,93.27
2023-02-21T06:28:15.049Z,92.66
2023-02-21T06:29:15.069Z,92.66
2023-02-21T06:30:15.069Z,92.15
2023-02-21T06:31:15.356Z,91.85
2023-02-21T06:32:15.071Z,90.66
2023-02-21T06:33:14.975Z,90.27
2023-02-21T06:34:15.002Z,90.27
2023-02-21T06:35:14.977Z,90.85
2023-02-21T06:36:14.947Z,90.95
2023-02-21T06:37:14.924Z,89.31
2023-02-21T06:38:14.942Z,89.03
2023-02-21T06:39:14.902Z,90.17
2023-02-21T06:40:14.927Z,89.79
2023-02-21T06:41:15.248Z,90.85
2023-02-21T06:42:14.924Z,92.76
2023-02-21T06:43:14.852Z,94.43
2023-02-21T06:44:14.854Z,94.82
2023-02-21T06:45:14.865Z,95.74
2023-02-21T06:46:14.872Z,97.07
2023-02-21T06:47:14.821Z,94.19
2023-02-21T06:48:14.858Z,94.43
2023-02-21T06:49:14.825Z,94.53
2023-02-21T06:50:14.789Z,95.28
2023-02-21T06:51:15.179Z,94.64
2023-02-21T06:52:14.772Z,96.07
2023-02-21T06:53:14.725Z,97.41
2023-02-21T06:54:14.759Z,99.78
2023-02-21T06:55:14.717Z,102.39
2023-02-21T06:56:14.710Z,101.83
2023-02-21T06:57:14.677Z,101.22
2023-02-21T06:58:14.682Z,102.26
2023-02-21T06:59:14.660Z,102.08
2023-02-21T07:00:14.635Z,102.20
2023-02-21T07:01:15.142Z,101.40
2023-02-21T07:02:14.625Z,101.34
2023-02-21T07:03:14.588Z,100.92
2023-02-21T07:04:14.600Z,100.67
2023-02-21T07:05:14.606Z,99.78
2023-02-21T07:06:14.607Z,98.66
2023-02-21T07:07:14.558Z,100.55
2023-02-21T07:08:14.615Z,100.49
2023-02-21T07:09:14.528Z,101.28
2023-02-21T07:10:14.547Z,101.65
2023-02-21T07:11:14.843Z,100.43
2023-02-21T07:12:14.484Z,100.19
2023-02-21T07:13:14.465Z,99.54
2023-02-21T07:14:14.530Z,99.48
2023-02-21T07:15:14.470Z,100.07
2023-02-21T07:16:14.575Z,100.01
2023-02-21T07:17:14.418Z,100.37
2023-02-21T07:18:14.437Z,98.15
2023-02-21T07:19:14.393Z,94.66
2023-02-21T07:20:14.380Z,95.07
2023-02-21T07:21:14.646Z,93.48
2023-02-21T07:22:14.372Z,93.17
2023-02-21T07:23:14.339Z,93.71
2023-02-21T07:24:14.354Z,96.35
2023-02-21T07:25:14.317Z,97.24
2023-02-21T07:26:14.315Z,97.58
2023-02-21T07:27:14.312Z,96.02
2023-02-21T07:28:14.312Z,96.96
2023-02-21T07:29:14.322Z,98.90
2023-02-21T07:30:14.276Z,98.84
2023-02-21T07:31:16.039Z,97.07
2023-02-21T07:32:14.306Z,94.21
2023-02-21T07:33:14.215Z,88.93
2023-02-21T07:34:14.212Z,85.50
2023-02-21T07:35:14.177Z,82.07
2023-02-21T07:36:14.180Z,79.14
2023-02-21T07:37:14.158Z,78.32
2023-02-21T07:38:14.162Z,79.21
2023-02-21T07:39:14.144Z,80.89
2023-02-21T07:40:14.132Z,84.46
2023-02-21T07:41:14.524Z,87.54
2023-02-21T07:42:14.094Z,88.46
2023-02-21T07:43:14.066Z,89.21
2023-02-21T07:44:14.085Z,89.12
2023-02-21T07:45:14.056Z,89.50
2023-02-21T07:46:14.078Z,91.55
2023-02-21T07:47:14.072Z,90.66
2023-02-21T07:48:14.026Z,86.91
2023-02-21T07:49:14.000Z,85.06
2023-02-21T07:50:13.991Z,83.62
2023-02-21T07:51:14.467Z,81.99
2023-02-21T07:52:14.018Z,80.04
2023-02-21T07:53:13.982Z,76.61
2023-02-21T07:54:13.944Z,75.17
2023-02-21T07:55:13.916Z,78.11
2023-02-21T07:56:13.933Z,81.36
2023-02-21T07:57:13.965Z,81.36
2023-02-21T07:58:13.923Z,78.77
2023-02-21T07:59:13.888Z,75.58
2023-02-21T08:00:13.862Z,74.90
2023-02-21T08:01:14.158Z,75.99
2023-02-21T08:02:13.839Z,76.06
2023-02-21T08:03:13.810Z,76.13
2023-02-21T08:04:13.849Z,74.97
2023-02-21T08:05:13.803Z,75.04
2023-02-21T08:06:13.793Z,74.97
2023-02-21T08:07:13.772Z,74.18
2023-02-21T08:08:13.771Z,73.02
2023-02-21T08:09:13.730Z,74.71
2023-02-21T08:10:16.666Z,74.51
2023-02-21T08:11:14.181Z,74.90
2023-02-21T08:12:13.687Z,73.46
2023-02-21T08:13:13.724Z,73.34
2023-02-21T08:14:13.688Z,73.66
2023-02-21T08:15:13.659Z,74.71
2023-02-21T08:16:13.769Z,73.02
2023-02-21T08:17:13.672Z,70.80
2023-02-21T08:18:13.616Z,70.33
2023-02-21T08:19:13.608Z,70.80
2023-02-21T08:20:13.603Z,67.34
2023-02-21T08:21:13.884Z,60.33
2023-02-21T08:22:13.639Z,54.40
2023-02-21T08:23:13.543Z,50.72
2023-02-21T08:24:13.523Z,48.64
2023-02-21T08:25:13.525Z,49.10
2023-02-21T08:26:13.525Z,50.54
2023-02-21T08:27:13.498Z,51.91
2023-02-21T08:28:13.499Z,52.37
2023-02-21T08:29:13.462Z,54.65
2023-02-21T08:30:13.609Z,56.98
2023-02-21T08:31:13.724Z,57.96
2023-02-21T08:32:13.511Z,58.65
2023-02-21T08:33:13.408Z,60.03
2023-02-21T08:34:13.407Z,61.04
2023-02-21T08:35:13.388Z,61.85
2023-02-21T08:36:13.377Z,63.24
2023-02-21T08:37:13.370Z,63.48
2023-02-21T08:38:13.370Z,65.00
2023-02-21T08:39:13.338Z,65.92
2023-02-21T08:40:13.400Z,65.92
2023-02-21T08:41:13.660Z,65.51
2023-02-21T08:42:13.309Z,64.01
2023-02-21T08:43:13.332Z,64.01
2023-02-21T08:44:13.310Z,65.51
2023-02-21T08:45:13.293Z,67.45
2023-02-21T08:46:13.334Z,69.57
2023-02-21T08:47:13.342Z,70.15
2023-02-21T08:48:13.281Z,71.16
2023-02-21T08:49:13.251Z,73.02
2023-02-21T08:50:13.239Z,74.31
2023-02-21T08:51:13.715Z,76.20
2023-02-21T08:52:13.280Z,79.51
2023-02-21T08:53:15.217Z,81.67
2023-02-21T08:54:13.162Z,82.39
2023-02-21T08:55:13.182Z,84.81
2023-02-21T08:56:13.190Z,85.32
2023-02-21T08:57:13.117Z,86.11
2023-02-21T08:58:13.155Z,86.02
2023-02-21T08:59:13.103Z,87.82
2023-02-21T09:00:13.119Z,89.98
2023-02-21T09:01:13.537Z,92.45
2023-02-21T09:02:13.154Z,90.07
2023-02-21T09:03:13.065Z,86.02
2023-02-21T09:04:13.089Z,84.46
2023-02-21T09:05:13.123Z,86.64
2023-02-21T09:06:13.008Z,88.56
2023-02-21T09:07:13.024Z,89.88
2023-02-21T09:08:13.005Z,90.37
2023-02-21T09:09:12.977Z,90.07
2023-02-21T09:10:12.977Z,90.85
2023-02-21T09:11:13.110Z,92.56
2023-02-21T09:12:12.969Z,90.17
2023-02-21T09:13:12.914Z,89.69
2023-02-21T09:14:12.960Z,90.37
2023-02-21T09:15:12.879Z,91.65
2023-02-21T09:16:12.964Z,90.95
2023-02-21T09:17:12.902Z,91.65
2023-02-21T09:18:12.838Z,92.35
2023-02-21T09:19:12.823Z,92.25
2023-02-21T09:20:12.874Z,94.64
2023-02-21T09:21:13.186Z,95.31
2023-02-21T09:22:12.826Z,96.62
2023-02-21T09:23:12.797Z,99.01
2023-02-21T09:24:12.791Z,97.92
2023-02-21T09:25:12.773Z,98.61
2023-02-21T09:26:12.774Z,98.26
2023-02-21T09:27:12.785Z,97.24
2023-02-21T09:28:12.768Z,97.24
2023-02-21T09:29:12.777Z,96.02
2023-02-21T09:30:12.808Z,95.04
2023-02-21T09:31:12.871Z,95.04
2023-02-21T09:32:12.733Z,95.80
2023-02-21T09:33:12.676Z,96.35
2023-02-21T09:34:12.668Z,94.82
2023-02-21T09:35:12.644Z,94.45
2023-02-21T09:36:12.638Z,95.31
2023-02-21T09:37:12.640Z,95.09
2023-02-21T09:38:12.635Z,95.42
2023-02-21T09:39:12.613Z,95.09
2023-02-21T09:40:12.579Z,93.48
2023-02-21T09:41:12.677Z,93.69
2023-02-21T09:42:12.593Z,95.09
2023-02-21T09:43:12.519Z,94.99
2023-02-21T09:44:12.530Z,97.12
2023-02-21T09:45:12.499Z,96.51
2023-02-21T09:46:12.585Z,97.97
2023-02-21T09:47:12.607Z,96.79
2023-02-21T09:48:12.502Z,95.39
2023-02-21T09:49:13.311Z,93.48
2023-02-21T09:50:13.283Z,93.90
2023-02-21T09:51:12.800Z,92.05
2023-02-21T09:52:12.432Z,92.76
2023-02-21T09:53:12.396Z,90.07
2023-02-21T09:54:12.394Z,87.91
2023-02-21T09:55:12.424Z,85.50
2023-02-21T09:56:12.362Z,86.02
2023-02-21T09:57:12.377Z,85.58
2023-02-21T09:58:12.369Z,87.54
2023-02-21T09:59:12.319Z,88.56
2023-02-21T10:00:12.986Z,90.07
2023-02-21T10:01:12.560Z,90.07
2023-02-21T10:02:12.298Z,89.88
2023-02-21T10:03:12.273Z,89.31
2023-02-21T10:04:12.499Z,90.85
2023-02-21T10:05:12.240Z,92.66
2023-02-21T10:06:12.244Z,92.66
2023-02-21T10:07:12.242Z,90.56
2023-02-21T10:08:12.220Z,89.98
2023-02-21T10:09:12.239Z,91.65
2023-02-21T10:10:12.185Z,92.05
2023-02-21T10:11:12.191Z,93.90
2023-02-21T10:12:12.208Z,93.48
2023-02-21T10:13:12.202Z,91.25
2023-02-21T10:14:12.171Z,88.00
2023-02-21T10:15:12.116Z,86.02
2023-02-21T10:16:12.589Z,86.91
2023-02-21T10:17:12.092Z,87.91
2023-02-21T10:18:12.093Z,87.36
2023-02-21T10:19:12.167Z,89.31
2023-02-21T10:20:12.121Z,89.88
2023-02-21T10:21:12.058Z,87.09
2023-02-21T10:22:12.046Z,89.12
2023-02-21T10:23:12.092Z,92.35
2023-02-21T10:24:12.023Z,91.75
2023-02-21T10:25:12.003Z,92.45
2023-02-21T10:26:12.003Z,92.56
2023-02-21T10:27:11.998Z,93.79
2023-02-21T10:28:11.977Z,95.50
2023-02-21T10:29:12.056Z,96.18
2023-02-21T10:30:11.946Z,97.46
2023-02-21T10:31:11.955Z,96.40
2023-02-21T10:32:11.997Z,94.11
2023-02-21T10:33:11.901Z,94.24
2023-02-21T10:34:11.904Z,95.91
2023-02-21T10:35:11.852Z,96.29
2023-02-21T10:36:11.880Z,95.69
2023-02-21T10:37:11.872Z,93.17
2023-02-21T10:38:11.880Z,94.85
2023-02-21T10:39:11.815Z,94.11
2023-02-21T10:40:11.816Z,89.21
2023-02-21T10:41:11.786Z,85.24
2023-02-21T10:42:11.801Z,82.88
2023-02-21T10:43:11.793Z,81.28
2023-02-21T10:44:11.764Z,79.44
2023-02-21T10:45:11.731Z,77.25
2023-02-21T10:46:11.841Z,77.46
2023-02-21T10:47:11.726Z,78.99
2023-02-21T10:48:11.718Z,79.36
2023-02-21T10:49:11.698Z,79.06
2023-02-21T10:50:11.704Z,80.89
2023-02-21T10:51:11.654Z,84.04
2023-02-21T10:52:12.467Z,88.84
2023-02-21T10:53:11.753Z,87.45
2023-02-21T10:54:11.630Z,84.89
2023-02-21T10:55:23.036Z,83.46
2023-02-21T10:56:11.650Z,83.96
2023-02-21T10:57:11.589Z,83.46
2023-02-21T10:58:11.641Z,85.15
2023-02-21T10:59:11.591Z,84.46
2023-02-21T11:00:11.550Z,83.96
2023-02-21T11:01:11.600Z,85.32
2023-02-21T11:02:11.595Z,82.31
2023-02-21T11:03:11.507Z,80.04
2023-02-21T11:04:11.529Z,80.12
2023-02-21T11:05:11.484Z,81.04
2023-02-21T11:06:11.507Z,81.20
2023-02-21T11:07:11.485Z,79.96
2023-02-21T11:08:11.470Z,78.62
2023-02-21T11:09:11.443Z,76.54
2023-02-21T11:10:11.447Z,74.84
2023-02-21T11:11:11.445Z,77.60
2023-02-21T11:12:11.417Z,79.96
2023-02-21T11:13:11.386Z,80.27
2023-02-21T11:14:11.380Z,80.19
2023-02-21T11:15:11.421Z,78.84
2023-02-21T11:16:11.481Z,79.21
2023-02-21T11:17:13.889Z,80.04
2023-02-21T11:18:11.350Z,77.03
2023-02-21T11:19:11.367Z,76.26
2023-02-21T11:20:11.313Z,77.03
2023-02-21T11:21:11.351Z,79.66
2023-02-21T11:22:11.297Z,79.66
2023-02-21T11:23:11.263Z,81.44
2023-02-21T11:24:11.268Z,83.79
2023-02-21T11:25:11.239Z,85.67
2023-02-21T11:26:11.229Z,83.79
2023-02-21T11:27:11.212Z,83.96
2023-02-21T11:28:11.223Z,85.06
2023-02-21T11:29:11.196Z,87.27
2023-02-21T11:30:11.238Z,87.45
2023-02-21T11:31:11.233Z,87.63
2023-02-21T11:32:11.993Z,86.29
2023-02-21T11:33:11.218Z,87.91
2023-02-21T11:34:11.161Z,90.46
2023-02-21T11:35:11.112Z,91.55
2023-02-21T11:36:11.113Z,92.56
2023-02-21T11:37:11.109Z,93.69
2023-02-21T11:38:11.123Z,93.07
2023-02-21T11:39:11.095Z,91.85
2023-02-21T11:40:11.116Z,90.95
2023-02-21T11:41:11.036Z,89.69
2023-02-21T11:42:11.058Z,86.37
2023-02-21T11:43:11.065Z,87.72
2023-02-21T11:44:11.044Z,89.69
2023-02-21T11:45:10.991Z,89.60
2023-02-21T11:46:11.050Z,91.75
2023-02-21T11:47:10.965Z,92.86
2023-02-21T11:48:10.963Z,90.95
2023-02-21T11:49:11.010Z,86.02
2023-02-21T11:50:10.942Z,84.63
2023-02-21T11:51:10.919Z,84.46
2023-02-21T11:52:10.925Z,84.63
2023-02-21T11:53:10.905Z,84.04
2023-02-21T11:54:10.895Z,83.29
2023-02-21T11:55:10.862Z,83.13
2023-02-21T11:56:10.870Z,81.75
2023-02-21T11:57:10.845Z,84.98
2023-02-21T11:58:10.841Z,89.21
2023-02-21T11:59:10.838Z,92.76
2023-02-21T12:00:10.797Z,94.75
2023-02-21T12:01:10.782Z,93.07
2023-02-21T12:02:10.825Z,95.50
2023-02-21T12:03:10.779Z,95.07
2023-02-21T12:04:10.784Z,92.86
2023-02-21T12:05:10.752Z,95.07
2023-02-21T12:06:10.841Z,94.35
2023-02-21T12:07:10.714Z,94.03
2023-02-21T12:08:10.709Z,87.63
2023-02-21T12:09:10.684Z,84.04
2023-02-21T12:10:10.720Z,79.66
2023-02-21T12:11:10.662Z,75.58
2023-02-21T12:12:10.655Z,72.96
2023-02-21T12:13:10.642Z,75.58
2023-02-21T12:14:10.652Z,73.40
2023-02-21T12:15:10.636Z,72.45
2023-02-21T12:16:10.663Z,73.53
2023-02-21T12:17:10.602Z,71.53
2023-02-21T12:18:10.597Z,71.29
2023-02-21T12:19:10.573Z,71.53
2023-02-21T12:20:10.567Z,73.66
2023-02-21T12:21:10.542Z,75.24
2023-02-21T12:22:10.534Z,74.90
2023-02-21T12:23:10.528Z,79.74
2023-02-21T12:24:10.542Z,83.46
2023-02-21T12:25:10.501Z,84.29
2023-02-21T12:26:10.511Z,85.15
2023-02-21T12:27:10.471Z,86.02
2023-02-21T12:28:13.752Z,81.67
2023-02-21T12:29:10.435Z,80.65
2023-02-21T12:30:10.458Z,81.28
2023-02-21T12:31:10.685Z,79.51
2023-02-21T12:32:10.445Z,79.66
2023-02-21T12:33:10.437Z,78.77
2023-02-21T12:34:10.416Z,77.39
2023-02-21T12:35:10.385Z,78.54
2023-02-21T12:36:10.355Z,77.60
2023-02-21T12:37:10.359Z,78.04
2023-02-21T12:38:10.378Z,76.68
2023-02-21T12:39:10.367Z,78.18
2023-02-21T12:40:10.368Z,81.12
2023-02-21T12:41:10.294Z,83.79
2023-02-21T12:42:10.303Z,86.02
2023-02-21T12:43:10.294Z,87.91
2023-02-21T12:44:10.360Z,93.79
2023-02-21T12:45:10.297Z,94.08
2023-02-21T12:46:10.369Z,99.01
2023-02-21T12:47:10.272Z,101.40
2023-02-21T12:48:10.283Z,99.48
2023-02-21T12:49:10.245Z,99.48
2023-02-21T12:50:10.249Z,103.02
2023-02-21T12:51:10.209Z,109.53